sensor_id;sensor_type;location;lat;lon;timestamp;P1;durP1;ratioP1;P2;durP2;ratioP2
20844;SDS011;10583;49.084;8.646;2023-03-01T00:02:26;11.80;;;11.77;;
20844;SDS011;10583;49.084;8.646;2023-03-01T00:04:54;11.40;;;11.40;;
20844;SDS011;10583;49.084;8.646;2023-03-01T00:07:21;11.13;;;11.13;;
20844;SDS011;10583;49.084;8.646;2023-03-01T00:09:47;11.50;;;11.50;;
20844;SDS011;10583;49.084;8.646;2023-03-01T00:12:14;11.67;;;11.67;;
20844;SDS011;10583;49.084;8.646;2023-03-01T00:14:41;10.77;;;10.77;;
20844;SDS011;10583;49.084;8.646;2023-03-01T00:17:07;11.03;;;11.03;;
20844;SDS011;10583;49.084;8.646;2023-03-01T00:19:34;11.40;;;11.40;;
20844;SDS011;10583;49.084;8.646;2023-03-01T00:22:02;11.83;;;11.73;;
20844;SDS011;10583;49.084;8.646;2023-03-01T00:24:29;12.83;;;12.83;;
20844;SDS011;10583;49.084;8.646;2023-03-01T00:26:56;11.87;;;11.77;;
20844;SDS011;10583;49.084;8.646;2023-03-01T00:29:22;11.47;;;11.37;;
20844;SDS011;10583;49.084;8.646;2023-03-01T00:31:49;11.93;;;11.93;;
20844;SDS011;10583;49.084;8.646;2023-03-01T00:34:16;11.63;;;11.63;;
20844;SDS011;10583;49.084;8.646;2023-03-01T00:36:43;11.73;;;11.63;;
20844;SDS011;10583;49.084;8.646;2023-03-01T00:39:12;11.90;;;11.80;;
20844;SDS011;10583;49.084;8.646;2023-03-01T00:41:40;11.63;;;11.63;;
20844;SDS011;10583;49.084;8.646;2023-03-01T00:44:07;11.83;;;11.83;;
20844;SDS011;10583;49.084;8.646;2023-03-01T00:46:34;12.83;;;12.73;;
20844;SDS011;10583;49.084;8.646;2023-03-01T00:49:01;12.50;;;12.40;;
20844;SDS011;10583;49.084;8.646;2023-03-01T00:51:29;12.63;;;12.53;;
20844;SDS011;10583;49.084;8.646;2023-03-01T00:53:58;12.43;;;12.37;;
20844;SDS011;10583;49.084;8.646;2023-03-01T00:56:27;12.77;;;12.67;;
20844;SDS011;10583;49.084;8.646;2023-03-01T00:58:54;12.93;;;12.83;;
20844;SDS011;10583;49.084;8.646;2023-03-01T01:01:22;13.33;;;13.27;;
20844;SDS011;10583;49.084;8.646;2023-03-01T01:03:53;13.27;;;13.17;;
20844;SDS011;10583;49.084;8.646;2023-03-01T01:06:22;12.07;;;11.97;;
20844;SDS011;10583;49.084;8.646;2023-03-01T01:08:50;12.67;;;12.57;;
20844;SDS011;10583;49.084;8.646;2023-03-01T01:11:18;11.97;;;11.97;;
20844;SDS011;10583;49.084;8.646;2023-03-01T01:13:47;13.07;;;12.97;;
20844;SDS011;10583;49.084;8.646;2023-03-01T01:16:15;13.67;;;13.57;;
20844;SDS011;10583;49.084;8.646;2023-03-01T01:18:43;13.83;;;13.73;;
20844;SDS011;10583;49.084;8.646;2023-03-01T01:21:11;13.13;;;13.03;;
20844;SDS011;10583;49.084;8.646;2023-03-01T01:23:39;12.13;;;12.13;;
20844;SDS011;10583;49.084;8.646;2023-03-01T01:26:07;13.50;;;13.40;;
20844;SDS011;10583;49.084;8.646;2023-03-01T01:28:36;13.17;;;13.10;;
20844;SDS011;10583;49.084;8.646;2023-03-01T01:31:04;13.27;;;13.27;;
20844;SDS011;10583;49.084;8.646;2023-03-01T01:33:31;13.67;;;13.57;;
20844;SDS011;10583;49.084;8.646;2023-03-01T01:35:59;13.67;;;13.57;;
20844;SDS011;10583;49.084;8.646;2023-03-01T01:38:26;14.33;;;14.23;;
20844;SDS011;10583;49.084;8.646;2023-03-01T01:40:53;15.10;;;15.00;;
20844;SDS011;10583;49.084;8.646;2023-03-01T01:43:21;14.53;;;14.43;;
20844;SDS011;10583;49.084;8.646;2023-03-01T01:45:49;14.17;;;14.07;;
20844;SDS011;10583;49.084;8.646;2023-03-01T01:48:18;14.63;;;14.53;;
20844;SDS011;10583;49.084;8.646;2023-03-01T01:50:49;15.00;;;14.90;;
20844;SDS011;10583;49.084;8.646;2023-03-01T01:53:21;15.00;;;14.90;;
20844;SDS011;10583;49.084;8.646;2023-03-01T01:55:49;14.57;;;14.47;;
20844;SDS011;10583;49.084;8.646;2023-03-01T01:58:22;14.77;;;14.67;;
20844;SDS011;10583;49.084;8.646;2023-03-01T02:00:52;14.73;;;14.63;;
20844;SDS011;10583;49.084;8.646;2023-03-01T02:03:22;14.80;;;14.70;;
20844;SDS011;10583;49.084;8.646;2023-03-01T02:05:55;15.80;;;15.70;;
20844;SDS011;10583;49.084;8.646;2023-03-01T02:08:26;15.80;;;15.70;;
20844;SDS011;10583;49.084;8.646;2023-03-01T02:10:55;15.30;;;15.20;;
20844;SDS011;10583;49.084;8.646;2023-03-01T02:13:24;14.93;;;14.83;;
20844;SDS011;10583;49.084;8.646;2023-03-01T02:15:51;15.70;;;15.60;;
20844;SDS011;10583;49.084;8.646;2023-03-01T02:18:18;17.93;;;17.83;;
20844;SDS011;10583;49.084;8.646;2023-03-01T02:20:52;17.57;;;17.47;;
20844;SDS011;10583;49.084;8.646;2023-03-01T02:23:28;16.73;;;16.63;;
20844;SDS011;10583;49.084;8.646;2023-03-01T02:25:57;16.03;;;15.93;;
20844;SDS011;10583;49.084;8.646;2023-03-01T02:28:30;16.13;;;16.03;;
20844;SDS011;10583;49.084;8.646;2023-03-01T02:30:58;15.17;;;15.07;;
20844;SDS011;10583;49.084;8.646;2023-03-01T02:33:42;15.63;;;15.53;;
20844;SDS011;10583;49.084;8.646;2023-03-01T02:36:14;15.90;;;15.80;;
20844;SDS011;10583;49.084;8.646;2023-03-01T02:38:43;15.70;;;15.60;;
20844;SDS011;10583;49.084;8.646;2023-03-01T02:41:10;15.27;;;15.17;;
20844;SDS011;10583;49.084;8.646;2023-03-01T02:43:41;15.73;;;15.63;;
20844;SDS011;10583;49.084;8.646;2023-03-01T02:46:12;15.47;;;15.37;;
20844;SDS011;10583;49.084;8.646;2023-03-01T02:48:42;15.93;;;15.83;;
20844;SDS011;10583;49.084;8.646;2023-03-01T02:51:13;16.60;;;16.50;;
20844;SDS011;10583;49.084;8.646;2023-03-01T02:53:53;15.93;;;15.83;;
20844;SDS011;10583;49.084;8.646;2023-03-01T02:56:30;16.40;;;16.30;;
20844;SDS011;10583;49.084;8.646;2023-03-01T02:58:58;16.37;;;16.27;;
20844;SDS011;10583;49.084;8.646;2023-03-01T03:01:27;16.20;;;16.10;;
20844;SDS011;10583;49.084;8.646;2023-03-01T03:04:01;15.93;;;15.83;;
20844;SDS011;10583;49.084;8.646;2023-03-01T03:06:29;16.33;;;16.23;;
20844;SDS011;10583;49.084;8.646;2023-03-01T03:08:55;15.40;;;15.30;;
20844;SDS011;10583;49.084;8.646;2023-03-01T03:11:22;15.93;;;15.83;;
20844;SDS011;10583;49.084;8.646;2023-03-01T03:13:49;16.67;;;16.57;;
20844;SDS011;10583;49.084;8.646;2023-03-01T03:16:18;16.80;;;16.70;;
20844;SDS011;10583;49.084;8.646;2023-03-01T03:18:45;16.83;;;16.73;;
20844;SDS011;10583;49.084;8.646;2023-03-01T03:21:13;16.00;;;15.90;;
20844;SDS011;10583;49.084;8.646;2023-03-01T03:23:41;18.00;;;17.90;;
20844;SDS011;10583;49.084;8.646;2023-03-01T03:26:08;16.13;;;16.03;;
20844;SDS011;10583;49.084;8.646;2023-03-01T03:28:38;15.33;;;15.23;;
20844;SDS011;10583;49.084;8.646;2023-03-01T03:31:06;16.17;;;16.07;;
20844;SDS011;10583;49.084;8.646;2023-03-01T03:33:34;16.10;;;16.00;;
20844;SDS011;10583;49.084;8.646;2023-03-01T03:36:01;16.80;;;16.70;;
20844;SDS011;10583;49.084;8.646;2023-03-01T03:38:29;16.40;;;16.30;;
20844;SDS011;10583;49.084;8.646;2023-03-01T03:40:59;16.50;;;16.40;;
20844;SDS011;10583;49.084;8.646;2023-03-01T03:43:29;17.43;;;17.33;;
20844;SDS011;10583;49.084;8.646;2023-03-01T03:45:57;16.20;;;16.10;;
20844;SDS011;10583;49.084;8.646;2023-03-01T03:48:24;16.67;;;16.57;;
20844;SDS011;10583;49.084;8.646;2023-03-01T03:50:53;16.07;;;15.97;;
20844;SDS011;10583;49.084;8.646;2023-03-01T03:53:22;16.30;;;16.20;;
20844;SDS011;10583;49.084;8.646;2023-03-01T03:55:50;16.20;;;16.10;;
20844;SDS011;10583;49.084;8.646;2023-03-01T03:58:17;16.40;;;16.30;;
20844;SDS011;10583;49.084;8.646;2023-03-01T04:00:46;17.20;;;17.10;;
20844;SDS011;10583;49.084;8.646;2023-03-01T04:03:15;16.07;;;15.97;;
20844;SDS011;10583;49.084;8.646;2023-03-01T04:05:43;17.07;;;16.97;;
20844;SDS011;10583;49.084;8.646;2023-03-01T04:08:12;17.30;;;17.20;;
20844;SDS011;10583;49.084;8.646;2023-03-01T04:10:40;16.53;;;16.43;;
20844;SDS011;10583;49.084;8.646;2023-03-01T04:13:09;17.73;;;17.63;;
20844;SDS011;10583;49.084;8.646;2023-03-01T04:15:38;17.97;;;17.87;;
20844;SDS011;10583;49.084;8.646;2023-03-01T04:18:05;17.53;;;17.43;;
20844;SDS011;10583;49.084;8.646;2023-03-01T04:20:33;18.50;;;18.40;;
20844;SDS011;10583;49.084;8.646;2023-03-01T04:23:02;18.73;;;18.63;;
20844;SDS011;10583;49.084;8.646;2023-03-01T04:25:39;18.63;;;18.53;;
20844;SDS011;10583;49.084;8.646;2023-03-01T04:28:07;18.93;;;18.83;;
20844;SDS011;10583;49.084;8.646;2023-03-01T04:30:34;18.57;;;18.47;;
20844;SDS011;10583;49.084;8.646;2023-03-01T04:33:02;19.77;;;19.67;;
20844;SDS011;10583;49.084;8.646;2023-03-01T04:35:30;19.50;;;19.40;;
20844;SDS011;10583;49.084;8.646;2023-03-01T04:37:56;18.23;;;18.13;;
20844;SDS011;10583;49.084;8.646;2023-03-01T04:40:23;19.17;;;19.07;;
20844;SDS011;10583;49.084;8.646;2023-03-01T04:42:52;18.53;;;18.43;;
20844;SDS011;10583;49.084;8.646;2023-03-01T04:45:19;19.03;;;18.93;;
20844;SDS011;10583;49.084;8.646;2023-03-01T04:47:46;19.10;;;19.00;;
20844;SDS011;10583;49.084;8.646;2023-03-01T04:50:13;20.23;;;20.13;;
20844;SDS011;10583;49.084;8.646;2023-03-01T04:52:41;19.30;;;19.20;;
20844;SDS011;10583;49.084;8.646;2023-03-01T04:55:08;18.63;;;18.53;;
20844;SDS011;10583;49.084;8.646;2023-03-01T04:57:36;18.07;;;17.97;;
20844;SDS011;10583;49.084;8.646;2023-03-01T05:00:05;19.60;;;19.50;;
20844;SDS011;10583;49.084;8.646;2023-03-01T05:02:45;19.00;;;18.90;;
20844;SDS011;10583;49.084;8.646;2023-03-01T05:05:13;21.17;;;21.07;;
20844;SDS011;10583;49.084;8.646;2023-03-01T05:07:40;20.03;;;19.93;;
20844;SDS011;10583;49.084;8.646;2023-03-01T05:10:07;19.63;;;19.53;;
20844;SDS011;10583;49.084;8.646;2023-03-01T05:12:35;19.00;;;18.90;;
20844;SDS011;10583;49.084;8.646;2023-03-01T05:15:04;19.23;;;19.13;;
20844;SDS011;10583;49.084;8.646;2023-03-01T05:17:32;18.87;;;18.77;;
20844;SDS011;10583;49.084;8.646;2023-03-01T05:19:59;19.30;;;19.20;;
20844;SDS011;10583;49.084;8.646;2023-03-01T05:22:25;18.67;;;18.57;;
20844;SDS011;10583;49.084;8.646;2023-03-01T05:24:52;18.57;;;18.47;;
20844;SDS011;10583;49.084;8.646;2023-03-01T05:27:20;19.47;;;19.37;;
20844;SDS011;10583;49.084;8.646;2023-03-01T05:29:47;18.70;;;18.60;;
20844;SDS011;10583;49.084;8.646;2023-03-01T05:32:15;19.20;;;19.10;;
20844;SDS011;10583;49.084;8.646;2023-03-01T05:34:42;19.20;;;19.10;;
20844;SDS011;10583;49.084;8.646;2023-03-01T05:37:11;18.67;;;18.57;;
20844;SDS011;10583;49.084;8.646;2023-03-01T05:39:38;18.23;;;18.13;;
20844;SDS011;10583;49.084;8.646;2023-03-01T05:42:09;19.03;;;18.93;;
20844;SDS011;10583;49.084;8.646;2023-03-01T05:44:36;19.53;;;19.43;;
20844;SDS011;10583;49.084;8.646;2023-03-01T05:47:03;19.40;;;19.30;;
20844;SDS011;10583;49.084;8.646;2023-03-01T05:49:32;19.97;;;19.87;;
20844;SDS011;10583;49.084;8.646;2023-03-01T05:51:59;20.03;;;19.93;;
20844;SDS011;10583;49.084;8.646;2023-03-01T05:54:26;19.13;;;19.03;;
20844;SDS011;10583;49.084;8.646;2023-03-01T05:56:53;21.47;;;21.37;;
20844;SDS011;10583;49.084;8.646;2023-03-01T05:59:20;20.50;;;20.40;;
20844;SDS011;10583;49.084;8.646;2023-03-01T06:01:46;20.93;;;20.83;;
20844;SDS011;10583;49.084;8.646;2023-03-01T06:04:13;21.23;;;21.03;;
20844;SDS011;10583;49.084;8.646;2023-03-01T06:06:41;21.87;;;21.67;;
20844;SDS011;10583;49.084;8.646;2023-03-01T06:09:08;20.87;;;20.77;;
20844;SDS011;10583;49.084;8.646;2023-03-01T06:11:35;21.10;;;21.00;;
20844;SDS011;10583;49.084;8.646;2023-03-01T06:14:02;21.97;;;21.87;;
20844;SDS011;10583;49.084;8.646;2023-03-01T06:16:29;21.47;;;21.37;;
20844;SDS011;10583;49.084;8.646;2023-03-01T06:18:56;19.97;;;19.87;;
20844;SDS011;10583;49.084;8.646;2023-03-01T06:21:22;20.17;;;20.07;;
20844;SDS011;10583;49.084;8.646;2023-03-01T06:23:50;22.00;;;21.90;;
20844;SDS011;10583;49.084;8.646;2023-03-01T06:26:17;20.73;;;20.63;;
20844;SDS011;10583;49.084;8.646;2023-03-01T06:28:44;21.93;;;21.83;;
20844;SDS011;10583;49.084;8.646;2023-03-01T06:31:11;20.97;;;20.87;;
20844;SDS011;10583;49.084;8.646;2023-03-01T06:33:38;20.57;;;20.47;;
20844;SDS011;10583;49.084;8.646;2023-03-01T06:36:05;20.73;;;20.63;;
20844;SDS011;10583;49.084;8.646;2023-03-01T06:38:32;21.53;;;21.43;;
20844;SDS011;10583;49.084;8.646;2023-03-01T06:41:00;20.77;;;20.67;;
20844;SDS011;10583;49.084;8.646;2023-03-01T06:43:27;20.57;;;20.47;;
20844;SDS011;10583;49.084;8.646;2023-03-01T06:45:54;20.73;;;20.63;;
20844;SDS011;10583;49.084;8.646;2023-03-01T06:48:21;19.67;;;19.57;;
20844;SDS011;10583;49.084;8.646;2023-03-01T06:50:48;21.63;;;21.47;;
20844;SDS011;10583;49.084;8.646;2023-03-01T06:53:15;19.43;;;19.33;;
20844;SDS011;10583;49.084;8.646;2023-03-01T06:55:41;20.30;;;20.20;;
20844;SDS011;10583;49.084;8.646;2023-03-01T06:58:09;20.80;;;20.70;;
20844;SDS011;10583;49.084;8.646;2023-03-01T07:00:36;21.77;;;21.67;;
20844;SDS011;10583;49.084;8.646;2023-03-01T07:03:05;19.83;;;19.73;;
20844;SDS011;10583;49.084;8.646;2023-03-01T07:05:33;19.87;;;19.77;;
20844;SDS011;10583;49.084;8.646;2023-03-01T07:08:00;20.20;;;20.10;;
20844;SDS011;10583;49.084;8.646;2023-03-01T07:10:27;19.90;;;19.80;;
20844;SDS011;10583;49.084;8.646;2023-03-01T07:12:54;20.00;;;19.90;;
20844;SDS011;10583;49.084;8.646;2023-03-01T07:15:23;20.90;;;20.80;;
20844;SDS011;10583;49.084;8.646;2023-03-01T07:17:50;21.07;;;20.97;;
20844;SDS011;10583;49.084;8.646;2023-03-01T07:20:17;20.00;;;19.90;;
20844;SDS011;10583;49.084;8.646;2023-03-01T07:22:44;19.60;;;19.50;;
20844;SDS011;10583;49.084;8.646;2023-03-01T07:25:10;19.10;;;19.00;;
20844;SDS011;10583;49.084;8.646;2023-03-01T07:27:37;20.27;;;20.17;;
20844;SDS011;10583;49.084;8.646;2023-03-01T07:30:04;19.57;;;19.47;;
20844;SDS011;10583;49.084;8.646;2023-03-01T07:32:33;18.70;;;18.60;;
20844;SDS011;10583;49.084;8.646;2023-03-01T07:35:00;20.77;;;20.67;;
20844;SDS011;10583;49.084;8.646;2023-03-01T07:37:26;20.27;;;20.17;;
20844;SDS011;10583;49.084;8.646;2023-03-01T07:39:53;19.40;;;19.30;;
20844;SDS011;10583;49.084;8.646;2023-03-01T07:42:20;19.10;;;19.00;;
20844;SDS011;10583;49.084;8.646;2023-03-01T07:44:46;18.70;;;18.60;;
20844;SDS011;10583;49.084;8.646;2023-03-01T07:47:13;18.83;;;18.73;;
20844;SDS011;10583;49.084;8.646;2023-03-01T07:49:41;19.03;;;18.93;;
20844;SDS011;10583;49.084;8.646;2023-03-01T07:52:09;18.97;;;18.87;;
20844;SDS011;10583;49.084;8.646;2023-03-01T07:54:37;19.20;;;19.10;;
20844;SDS011;10583;49.084;8.646;2023-03-01T07:57:04;19.20;;;19.10;;
20844;SDS011;10583;49.084;8.646;2023-03-01T07:59:30;18.27;;;18.17;;
20844;SDS011;10583;49.084;8.646;2023-03-01T08:01:57;18.47;;;18.37;;
20844;SDS011;10583;49.084;8.646;2023-03-01T08:04:24;19.00;;;18.90;;
20844;SDS011;10583;49.084;8.646;2023-03-01T08:06:53;17.13;;;17.03;;
20844;SDS011;10583;49.084;8.646;2023-03-01T08:09:20;18.17;;;18.07;;
20844;SDS011;10583;49.084;8.646;2023-03-01T08:11:47;19.27;;;19.17;;
20844;SDS011;10583;49.084;8.646;2023-03-01T08:14:14;18.70;;;18.60;;
20844;SDS011;10583;49.084;8.646;2023-03-01T08:16:40;18.97;;;18.87;;
20844;SDS011;10583;49.084;8.646;2023-03-01T08:19:07;18.23;;;18.13;;
20844;SDS011;10583;49.084;8.646;2023-03-01T08:21:35;17.83;;;17.73;;
20844;SDS011;10583;49.084;8.646;2023-03-01T08:24:05;18.33;;;18.23;;
20844;SDS011;10583;49.084;8.646;2023-03-01T08:26:33;18.83;;;18.73;;
20844;SDS011;10583;49.084;8.646;2023-03-01T08:29:00;19.13;;;19.03;;
20844;SDS011;10583;49.084;8.646;2023-03-01T08:31:30;17.73;;;17.63;;
20844;SDS011;10583;49.084;8.646;2023-03-01T08:34:01;18.07;;;17.97;;
20844;SDS011;10583;49.084;8.646;2023-03-01T08:36:30;19.47;;;19.37;;
20844;SDS011;10583;49.084;8.646;2023-03-01T08:38:58;19.87;;;19.77;;
20844;SDS011;10583;49.084;8.646;2023-03-01T08:41:26;18.70;;;18.60;;
20844;SDS011;10583;49.084;8.646;2023-03-01T08:43:53;18.93;;;18.83;;
20844;SDS011;10583;49.084;8.646;2023-03-01T08:46:23;18.80;;;18.70;;
20844;SDS011;10583;49.084;8.646;2023-03-01T08:48:50;18.23;;;18.13;;
20844;SDS011;10583;49.084;8.646;2023-03-01T08:51:17;18.10;;;18.00;;
20844;SDS011;10583;49.084;8.646;2023-03-01T08:53:45;18.83;;;18.73;;
20844;SDS011;10583;49.084;8.646;2023-03-01T08:56:12;18.77;;;18.67;;
20844;SDS011;10583;49.084;8.646;2023-03-01T08:58:42;17.43;;;17.33;;
20844;SDS011;10583;49.084;8.646;2023-03-01T09:01:10;18.60;;;18.50;;
20844;SDS011;10583;49.084;8.646;2023-03-01T09:03:37;18.73;;;18.63;;
20844;SDS011;10583;49.084;8.646;2023-03-01T09:06:05;17.30;;;17.20;;
20844;SDS011;10583;49.084;8.646;2023-03-01T09:08:34;18.17;;;18.07;;
20844;SDS011;10583;49.084;8.646;2023-03-01T09:11:01;18.50;;;18.40;;
20844;SDS011;10583;49.084;8.646;2023-03-01T09:13:28;17.93;;;17.83;;
20844;SDS011;10583;49.084;8.646;2023-03-01T09:15:58;18.60;;;18.50;;
20844;SDS011;10583;49.084;8.646;2023-03-01T09:18:26;18.10;;;18.00;;
20844;SDS011;10583;49.084;8.646;2023-03-01T09:20:53;18.10;;;18.00;;
20844;SDS011;10583;49.084;8.646;2023-03-01T09:23:26;18.53;;;18.43;;
20844;SDS011;10583;49.084;8.646;2023-03-01T09:25:52;18.07;;;17.97;;
20844;SDS011;10583;49.084;8.646;2023-03-01T09:28:19;19.17;;;19.07;;
20844;SDS011;10583;49.084;8.646;2023-03-01T09:30:48;17.90;;;17.80;;
20844;SDS011;10583;49.084;8.646;2023-03-01T09:33:16;19.07;;;18.97;;
20844;SDS011;10583;49.084;8.646;2023-03-01T09:35:43;18.40;;;18.30;;
20844;SDS011;10583;49.084;8.646;2023-03-01T09:38:12;18.90;;;18.80;;
20844;SDS011;10583;49.084;8.646;2023-03-01T09:40:41;19.17;;;19.07;;
20844;SDS011;10583;49.084;8.646;2023-03-01T09:43:13;17.60;;;17.50;;
20844;SDS011;10583;49.084;8.646;2023-03-01T09:45:44;18.73;;;18.63;;
20844;SDS011;10583;49.084;8.646;2023-03-01T09:48:16;18.60;;;18.50;;
20844;SDS011;10583;49.084;8.646;2023-03-01T09:50:47;18.03;;;17.93;;
20844;SDS011;10583;49.084;8.646;2023-03-01T09:53:15;19.13;;;19.03;;
20844;SDS011;10583;49.084;8.646;2023-03-01T09:55:44;17.83;;;17.73;;
20844;SDS011;10583;49.084;8.646;2023-03-01T09:58:29;18.83;;;18.73;;
20844;SDS011;10583;49.084;8.646;2023-03-01T10:01:02;16.57;;;16.47;;
20844;SDS011;10583;49.084;8.646;2023-03-01T10:03:42;18.67;;;18.57;;
20844;SDS011;10583;49.084;8.646;2023-03-01T10:06:12;19.00;;;18.90;;
20844;SDS011;10583;49.084;8.646;2023-03-01T10:08:46;18.77;;;18.67;;
20844;SDS011;10583;49.084;8.646;2023-03-01T10:11:21;17.57;;;17.47;;
20844;SDS011;10583;49.084;8.646;2023-03-01T10:13:50;18.43;;;18.33;;
20844;SDS011;10583;49.084;8.646;2023-03-01T10:16:23;18.87;;;18.77;;
20844;SDS011;10583;49.084;8.646;2023-03-01T10:18:55;19.13;;;19.03;;
20844;SDS011;10583;49.084;8.646;2023-03-01T10:21:25;18.63;;;18.53;;
20844;SDS011;10583;49.084;8.646;2023-03-01T10:23:54;19.53;;;19.43;;
20844;SDS011;10583;49.084;8.646;2023-03-01T10:26:30;18.93;;;18.83;;
20844;SDS011;10583;49.084;8.646;2023-03-01T10:29:05;18.27;;;18.17;;
20844;SDS011;10583;49.084;8.646;2023-03-01T10:31:37;19.33;;;19.23;;
20844;SDS011;10583;49.084;8.646;2023-03-01T10:34:14;19.67;;;19.57;;
20844;SDS011;10583;49.084;8.646;2023-03-01T10:36:43;18.37;;;18.27;;
20844;SDS011;10583;49.084;8.646;2023-03-01T10:39:12;18.40;;;18.30;;
20844;SDS011;10583;49.084;8.646;2023-03-01T10:41:51;19.57;;;19.47;;
20844;SDS011;10583;49.084;8.646;2023-03-01T10:44:34;19.87;;;19.77;;
20844;SDS011;10583;49.084;8.646;2023-03-01T10:47:15;18.53;;;18.43;;
20844;SDS011;10583;49.084;8.646;2023-03-01T10:49:54;18.83;;;18.73;;
20844;SDS011;10583;49.084;8.646;2023-03-01T10:52:27;19.13;;;19.03;;
20844;SDS011;10583;49.084;8.646;2023-03-01T10:54:56;17.83;;;17.73;;
20844;SDS011;10583;49.084;8.646;2023-03-01T10:57:27;18.73;;;18.63;;
20844;SDS011;10583;49.084;8.646;2023-03-01T11:00:00;18.57;;;18.47;;
20844;SDS011;10583;49.084;8.646;2023-03-01T11:02:46;18.50;;;18.40;;
20844;SDS011;10583;49.084;8.646;2023-03-01T11:05:23;18.60;;;18.50;;
20844;SDS011;10583;49.084;8.646;2023-03-01T11:07:51;18.10;;;18.00;;
20844;SDS011;10583;49.084;8.646;2023-03-01T11:10:20;18.63;;;18.53;;
20844;SDS011;10583;49.084;8.646;2023-03-01T11:12:50;19.13;;;19.03;;
20844;SDS011;10583;49.084;8.646;2023-03-01T11:15:25;18.53;;;18.43;;
20844;SDS011;10583;49.084;8.646;2023-03-01T11:17:54;18.23;;;18.13;;
20844;SDS011;10583;49.084;8.646;2023-03-01T11:20:26;18.10;;;18.00;;
20844;SDS011;10583;49.084;8.646;2023-03-01T11:22:57;17.97;;;17.87;;
20844;SDS011;10583;49.084;8.646;2023-03-01T11:25:28;17.30;;;17.20;;
20844;SDS011;10583;49.084;8.646;2023-03-01T11:27:59;17.00;;;16.90;;
20844;SDS011;10583;49.084;8.646;2023-03-01T11:30:28;18.87;;;18.77;;
20844;SDS011;10583;49.084;8.646;2023-03-01T11:33:02;18.17;;;18.07;;
20844;SDS011;10583;49.084;8.646;2023-03-01T11:35:36;18.37;;;18.27;;
20844;SDS011;10583;49.084;8.646;2023-03-01T11:38:12;18.60;;;18.50;;
20844;SDS011;10583;49.084;8.646;2023-03-01T11:40:45;18.53;;;18.43;;
20844;SDS011;10583;49.084;8.646;2023-03-01T11:43:19;17.97;;;17.87;;
20844;SDS011;10583;49.084;8.646;2023-03-01T11:45:57;18.00;;;17.90;;
20844;SDS011;10583;49.084;8.646;2023-03-01T11:48:50;17.80;;;17.70;;
20844;SDS011;10583;49.084;8.646;2023-03-01T11:51:30;18.07;;;17.97;;
20844;SDS011;10583;49.084;8.646;2023-03-01T11:54:06;19.23;;;19.13;;
20844;SDS011;10583;49.084;8.646;2023-03-01T11:56:45;17.83;;;17.73;;
20844;SDS011;10583;49.084;8.646;2023-03-01T12:05:59;18.37;;;18.27;;
20844;SDS011;10583;49.084;8.646;2023-03-01T12:08:49;18.57;;;18.47;;
20844;SDS011;10583;49.084;8.646;2023-03-01T12:11:23;18.50;;;18.40;;
20844;SDS011;10583;49.084;8.646;2023-03-01T12:14:20;17.90;;;17.80;;
20844;SDS011;10583;49.084;8.646;2023-03-01T12:17:14;18.43;;;18.33;;
20844;SDS011;10583;49.084;8.646;2023-03-01T12:20:14;18.40;;;18.30;;
20844;SDS011;10583;49.084;8.646;2023-03-01T12:22:57;18.83;;;18.73;;
20844;SDS011;10583;49.084;8.646;2023-03-01T12:25:54;18.83;;;18.73;;
20844;SDS011;10583;49.084;8.646;2023-03-01T12:28:33;18.00;;;17.90;;
20844;SDS011;10583;49.084;8.646;2023-03-01T12:31:25;18.93;;;18.83;;
20844;SDS011;10583;49.084;8.646;2023-03-01T12:34:19;17.40;;;17.30;;
20844;SDS011;10583;49.084;8.646;2023-03-01T12:39:56;17.23;;;17.13;;
20844;SDS011;10583;49.084;8.646;2023-03-01T12:42:40;18.37;;;18.27;;
20844;SDS011;10583;49.084;8.646;2023-03-01T12:45:30;17.93;;;17.83;;
20844;SDS011;10583;49.084;8.646;2023-03-01T12:48:08;17.70;;;17.60;;
20844;SDS011;10583;49.084;8.646;2023-03-01T12:50:51;18.07;;;17.97;;
20844;SDS011;10583;49.084;8.646;2023-03-01T12:53:22;18.13;;;18.03;;
20844;SDS011;10583;49.084;8.646;2023-03-01T12:55:51;18.33;;;18.23;;
20844;SDS011;10583;49.084;8.646;2023-03-01T12:58:26;17.47;;;17.37;;
20844;SDS011;10583;49.084;8.646;2023-03-01T13:01:00;18.33;;;18.23;;
20844;SDS011;10583;49.084;8.646;2023-03-01T13:03:44;17.50;;;17.40;;
20844;SDS011;10583;49.084;8.646;2023-03-01T13:06:25;17.37;;;17.27;;
20844;SDS011;10583;49.084;8.646;2023-03-01T13:09:03;17.07;;;16.97;;
20844;SDS011;10583;49.084;8.646;2023-03-01T13:11:33;18.07;;;17.97;;
20844;SDS011;10583;49.084;8.646;2023-03-01T13:17:03;17.47;;;17.37;;
20844;SDS011;10583;49.084;8.646;2023-03-01T13:19:30;17.70;;;17.60;;
20844;SDS011;10583;49.084;8.646;2023-03-01T13:22:00;16.33;;;16.23;;
20844;SDS011;10583;49.084;8.646;2023-03-01T13:25:00;16.90;;;16.80;;
20844;SDS011;10583;49.084;8.646;2023-03-01T13:27:29;16.43;;;16.33;;
20844;SDS011;10583;49.084;8.646;2023-03-01T13:29:59;17.63;;;17.53;;
20844;SDS011;10583;49.084;8.646;2023-03-01T13:32:30;16.83;;;16.73;;
20844;SDS011;10583;49.084;8.646;2023-03-01T13:34:58;17.83;;;17.73;;
20844;SDS011;10583;49.084;8.646;2023-03-01T13:37:34;17.20;;;17.10;;
20844;SDS011;10583;49.084;8.646;2023-03-01T13:40:04;17.37;;;17.27;;
20844;SDS011;10583;49.084;8.646;2023-03-01T13:42:56;17.47;;;17.37;;
20844;SDS011;10583;49.084;8.646;2023-03-01T13:45:27;17.40;;;17.30;;
20844;SDS011;10583;49.084;8.646;2023-03-01T13:48:03;17.30;;;17.20;;
20844;SDS011;10583;49.084;8.646;2023-03-01T13:50:37;17.27;;;17.17;;
20844;SDS011;10583;49.084;8.646;2023-03-01T13:53:12;17.50;;;17.40;;
20844;SDS011;10583;49.084;8.646;2023-03-01T13:55:44;17.80;;;17.70;;
20844;SDS011;10583;49.084;8.646;2023-03-01T13:58:19;17.43;;;17.33;;
20844;SDS011;10583;49.084;8.646;2023-03-01T14:00:56;17.70;;;17.60;;
20844;SDS011;10583;49.084;8.646;2023-03-01T14:03:25;17.90;;;17.80;;
20844;SDS011;10583;49.084;8.646;2023-03-01T14:05:59;17.30;;;17.20;;
20844;SDS011;10583;49.084;8.646;2023-03-01T14:08:31;17.80;;;17.70;;
20844;SDS011;10583;49.084;8.646;2023-03-01T14:11:03;18.03;;;17.93;;
20844;SDS011;10583;49.084;8.646;2023-03-01T14:17:09;16.80;;;16.70;;
20844;SDS011;10583;49.084;8.646;2023-03-01T14:19:47;16.83;;;16.73;;
20844;SDS011;10583;49.084;8.646;2023-03-01T14:22:21;16.77;;;16.67;;
20844;SDS011;10583;49.084;8.646;2023-03-01T14:24:51;16.57;;;16.47;;
20844;SDS011;10583;49.084;8.646;2023-03-01T14:27:21;16.77;;;16.67;;
20844;SDS011;10583;49.084;8.646;2023-03-01T14:29:55;16.77;;;16.67;;
20844;SDS011;10583;49.084;8.646;2023-03-01T14:32:25;16.17;;;16.07;;
20844;SDS011;10583;49.084;8.646;2023-03-01T14:34:54;16.90;;;16.80;;
20844;SDS011;10583;49.084;8.646;2023-03-01T14:37:24;16.30;;;16.20;;
20844;SDS011;10583;49.084;8.646;2023-03-01T14:39:52;16.67;;;16.57;;
20844;SDS011;10583;49.084;8.646;2023-03-01T14:42:21;16.70;;;16.60;;
20844;SDS011;10583;49.084;8.646;2023-03-01T14:44:50;16.37;;;16.27;;
20844;SDS011;10583;49.084;8.646;2023-03-01T14:47:21;16.67;;;16.57;;
20844;SDS011;10583;49.084;8.646;2023-03-01T14:49:56;17.83;;;17.73;;
20844;SDS011;10583;49.084;8.646;2023-03-01T14:52:27;16.47;;;16.37;;
20844;SDS011;10583;49.084;8.646;2023-03-01T14:54:59;15.27;;;15.17;;
20844;SDS011;10583;49.084;8.646;2023-03-01T14:57:28;16.40;;;16.30;;